sensor_id;sensor_type;location;lat;lon;timestamp;P1;durP1;ratioP1;P2;durP2;ratioP2
79539;SDS011;68991;52.122;5.406;2023-05-24T00:00:05;4.63;;;1.42;;
79539;SDS011;68991;52.122;5.406;2023-05-24T00:02:38;5.68;;;1.75;;
79539;SDS011;68991;52.122;5.406;2023-05-24T00:05:07;4.18;;;1.73;;
79539;SDS011;68991;52.122;5.406;2023-05-24T00:07:36;3.42;;;1.45;;
79539;SDS011;68991;52.122;5.406;2023-05-24T00:10:03;3.10;;;1.50;;
79539;SDS011;68991;52.122;5.406;2023-05-24T00:12:31;2.30;;;1.20;;
79539;SDS011;68991;52.122;5.406;2023-05-24T00:14:57;4.35;;;1.50;;
79539;SDS011;68991;52.122;5.406;2023-05-24T00:17:24;2.78;;;1.13;;
79539;SDS011;68991;52.122;5.406;2023-05-24T00:19:51;5.50;;;1.60;;
79539;SDS011;68991;52.122;5.406;2023-05-24T00:22:17;2.10;;;1.33;;
79539;SDS011;68991;52.122;5.406;2023-05-24T00:24:46;2.83;;;1.60;;
79539;SDS011;68991;52.122;5.406;2023-05-24T00:27:13;3.67;;;1.33;;
79539;SDS011;68991;52.122;5.406;2023-05-24T00:29:40;3.47;;;1.35;;
79539;SDS011;68991;52.122;5.406;2023-05-24T00:32:07;4.13;;;1.38;;
79539;SDS011;68991;52.122;5.406;2023-05-24T00:34:33;3.35;;;1.42;;
79539;SDS011;68991;52.122;5.406;2023-05-24T00:37:00;3.17;;;1.30;;
79539;SDS011;68991;52.122;5.406;2023-05-24T00:39:27;4.40;;;1.38;;
79539;SDS011;68991;52.122;5.406;2023-05-24T00:41:53;4.20;;;1.58;;
79539;SDS011;68991;52.122;5.406;2023-05-24T00:44:19;3.53;;;1.17;;
79539;SDS011;68991;52.122;5.406;2023-05-24T00:46:46;3.60;;;1.58;;
79539;SDS011;68991;52.122;5.406;2023-05-24T00:49:12;2.78;;;1.30;;
79539;SDS011;68991;52.122;5.406;2023-05-24T00:51:39;2.60;;;1.40;;
79539;SDS011;68991;52.122;5.406;2023-05-24T00:54:05;3.65;;;1.27;;
79539;SDS011;68991;52.122;5.406;2023-05-24T00:56:32;3.20;;;1.50;;
79539;SDS011;68991;52.122;5.406;2023-05-24T00:58:59;2.35;;;0.98;;
79539;SDS011;68991;52.122;5.406;2023-05-24T01:01:26;3.97;;;1.48;;
79539;SDS011;68991;52.122;5.406;2023-05-24T01:03:56;3.95;;;1.42;;
79539;SDS011;68991;52.122;5.406;2023-05-24T01:06:25;4.82;;;1.30;;
79539;SDS011;68991;52.122;5.406;2023-05-24T01:11:45;2.42;;;1.30;;
79539;SDS011;68991;52.122;5.406;2023-05-24T01:20:13;2.88;;;1.17;;
79539;SDS011;68991;52.122;5.406;2023-05-24T01:25:38;3.65;;;1.42;;
79539;SDS011;68991;52.122;5.406;2023-05-24T01:28:12;3.10;;;1.23;;
79539;SDS011;68991;52.122;5.406;2023-05-24T01:30:40;3.20;;;1.20;;
79539;SDS011;68991;52.122;5.406;2023-05-24T01:33:08;3.67;;;1.10;;
79539;SDS011;68991;52.122;5.406;2023-05-24T01:35:35;2.00;;;1.00;;
79539;SDS011;68991;52.122;5.406;2023-05-24T01:38:05;3.90;;;1.25;;
79539;SDS011;68991;52.122;5.406;2023-05-24T01:40:32;3.13;;;1.05;;
79539;SDS011;68991;52.122;5.406;2023-05-24T01:46:10;2.00;;;1.08;;
79539;SDS011;68991;52.122;5.406;2023-05-24T01:51:23;2.05;;;1.20;;
79539;SDS011;68991;52.122;5.406;2023-05-24T01:53:53;2.35;;;0.85;;
79539;SDS011;68991;52.122;5.406;2023-05-24T01:56:23;6.10;;;1.40;;
79539;SDS011;68991;52.122;5.406;2023-05-24T01:58:51;2.88;;;1.17;;
79539;SDS011;68991;52.122;5.406;2023-05-24T02:01:19;4.22;;;1.20;;
79539;SDS011;68991;52.122;5.406;2023-05-24T02:03:46;2.15;;;1.02;;
79539;SDS011;68991;52.122;5.406;2023-05-24T02:06:13;3.78;;;1.23;;
79539;SDS011;68991;52.122;5.406;2023-05-24T02:08:40;3.58;;;0.90;;
79539;SDS011;68991;52.122;5.406;2023-05-24T02:11:06;3.40;;;1.00;;
79539;SDS011;68991;52.122;5.406;2023-05-24T02:13:33;2.50;;;1.10;;
79539;SDS011;68991;52.122;5.406;2023-05-24T02:15:59;3.22;;;1.27;;
79539;SDS011;68991;52.122;5.406;2023-05-24T02:18:25;2.10;;;0.90;;
79539;SDS011;68991;52.122;5.406;2023-05-24T02:20:52;2.63;;;1.23;;
79539;SDS011;68991;52.122;5.406;2023-05-24T02:23:18;3.03;;;1.10;;
79539;SDS011;68991;52.122;5.406;2023-05-24T02:25:45;2.33;;;1.20;;
79539;SDS011;68991;52.122;5.406;2023-05-24T02:28:11;3.45;;;1.20;;
79539;SDS011;68991;52.122;5.406;2023-05-24T02:30:38;2.92;;;1.10;;
79539;SDS011;68991;52.122;5.406;2023-05-24T02:33:05;1.67;;;0.90;;
79539;SDS011;68991;52.122;5.406;2023-05-24T02:35:31;3.85;;;1.00;;
79539;SDS011;68991;52.122;5.406;2023-05-24T02:37:59;3.08;;;1.25;;
79539;SDS011;68991;52.122;5.406;2023-05-24T02:40:26;3.78;;;1.17;;
79539;SDS011;68991;52.122;5.406;2023-05-24T02:42:53;3.63;;;1.70;;
79539;SDS011;68991;52.122;5.406;2023-05-24T02:45:19;4.25;;;1.20;;
79539;SDS011;68991;52.122;5.406;2023-05-24T02:47:46;3.47;;;1.20;;
79539;SDS011;68991;52.122;5.406;2023-05-24T02:50:12;4.43;;;1.30;;
79539;SDS011;68991;52.122;5.406;2023-05-24T02:52:39;3.47;;;1.48;;
79539;SDS011;68991;52.122;5.406;2023-05-24T02:55:05;1.83;;;1.00;;
79539;SDS011;68991;52.122;5.406;2023-05-24T02:57:32;3.47;;;1.23;;
79539;SDS011;68991;52.122;5.406;2023-05-24T03:02:31;2.33;;;1.05;;
79539;SDS011;68991;52.122;5.406;2023-05-24T03:04:59;2.40;;;1.00;;
79539;SDS011;68991;52.122;5.406;2023-05-24T03:07:25;3.55;;;1.02;;
79539;SDS011;68991;52.122;5.406;2023-05-24T03:09:52;2.10;;;1.30;;
79539;SDS011;68991;52.122;5.406;2023-05-24T03:12:18;3.42;;;1.13;;
79539;SDS011;68991;52.122;5.406;2023-05-24T03:14:45;3.00;;;1.10;;
79539;SDS011;68991;52.122;5.406;2023-05-24T03:17:11;2.10;;;1.00;;
79539;SDS011;68991;52.122;5.406;2023-05-24T03:19:38;2.38;;;1.17;;
79539;SDS011;68991;52.122;5.406;2023-05-24T03:22:04;3.38;;;1.10;;
79539;SDS011;68991;52.122;5.406;2023-05-24T03:24:31;2.17;;;1.10;;
79539;SDS011;68991;52.122;5.406;2023-05-24T03:26:58;2.45;;;1.10;;
79539;SDS011;68991;52.122;5.406;2023-05-24T03:29:26;3.20;;;1.33;;
79539;SDS011;68991;52.122;5.406;2023-05-24T03:31:52;2.60;;;1.08;;
79539;SDS011;68991;52.122;5.406;2023-05-24T03:34:18;4.55;;;1.02;;
79539;SDS011;68991;52.122;5.406;2023-05-24T03:36:45;3.13;;;1.10;;
79539;SDS011;68991;52.122;5.406;2023-05-24T03:39:11;3.53;;;1.20;;
79539;SDS011;68991;52.122;5.406;2023-05-24T03:41:38;2.58;;;1.10;;
79539;SDS011;68991;52.122;5.406;2023-05-24T03:44:04;3.00;;;1.00;;
79539;SDS011;68991;52.122;5.406;2023-05-24T03:46:31;2.15;;;1.10;;
79539;SDS011;68991;52.122;5.406;2023-05-24T03:48:57;2.85;;;1.05;;
79539;SDS011;68991;52.122;5.406;2023-05-24T03:51:24;3.15;;;0.90;;
79539;SDS011;68991;52.122;5.406;2023-05-24T03:53:57;2.47;;;1.00;;
79539;SDS011;68991;52.122;5.406;2023-05-24T03:56:24;2.63;;;1.10;;
79539;SDS011;68991;52.122;5.406;2023-05-24T03:58:51;3.35;;;1.30;;
79539;SDS011;68991;52.122;5.406;2023-05-24T04:01:18;3.20;;;1.42;;
79539;SDS011;68991;52.122;5.406;2023-05-24T04:03:58;3.30;;;1.00;;
79539;SDS011;68991;52.122;5.406;2023-05-24T04:06:26;3.55;;;1.00;;
79539;SDS011;68991;52.122;5.406;2023-05-24T04:08:58;3.13;;;0.80;;
79539;SDS011;68991;52.122;5.406;2023-05-24T04:11:25;2.25;;;0.98;;
79539;SDS011;68991;52.122;5.406;2023-05-24T04:13:54;3.47;;;1.20;;
79539;SDS011;68991;52.122;5.406;2023-05-24T04:16:21;3.95;;;1.15;;
79539;SDS011;68991;52.122;5.406;2023-05-24T04:18:53;2.40;;;0.95;;
79539;SDS011;68991;52.122;5.406;2023-05-24T04:21:20;2.63;;;1.20;;
79539;SDS011;68991;52.122;5.406;2023-05-24T04:23:47;4.75;;;1.33;;
79539;SDS011;68991;52.122;5.406;2023-05-24T04:26:14;3.53;;;1.13;;
79539;SDS011;68991;52.122;5.406;2023-05-24T04:28:40;3.83;;;1.02;;
79539;SDS011;68991;52.122;5.406;2023-05-24T04:31:07;2.47;;;1.08;;
79539;SDS011;68991;52.122;5.406;2023-05-24T04:33:35;2.80;;;1.00;;
79539;SDS011;68991;52.122;5.406;2023-05-24T04:36:02;3.28;;;1.08;;
79539;SDS011;68991;52.122;5.406;2023-05-24T04:38:28;2.47;;;0.98;;
79539;SDS011;68991;52.122;5.406;2023-05-24T04:40:57;3.42;;;1.10;;
79539;SDS011;68991;52.122;5.406;2023-05-24T04:43:24;3.65;;;1.20;;
79539;SDS011;68991;52.122;5.406;2023-05-24T04:45:54;3.58;;;1.13;;
79539;SDS011;68991;52.122;5.406;2023-05-24T04:48:21;3.55;;;1.50;;
79539;SDS011;68991;52.122;5.406;2023-05-24T04:50:50;3.53;;;1.17;;
79539;SDS011;68991;52.122;5.406;2023-05-24T04:53:18;2.47;;;0.90;;
79539;SDS011;68991;52.122;5.406;2023-05-24T04:55:45;4.43;;;1.20;;
79539;SDS011;68991;52.122;5.406;2023-05-24T04:58:12;4.65;;;1.40;;
79539;SDS011;68991;52.122;5.406;2023-05-24T05:00:39;5.55;;;1.25;;
79539;SDS011;68991;52.122;5.406;2023-05-24T05:03:06;3.42;;;1.00;;
79539;SDS011;68991;52.122;5.406;2023-05-24T05:05:33;3.20;;;1.17;;
79539;SDS011;68991;52.122;5.406;2023-05-24T05:08:00;4.07;;;1.02;;
79539;SDS011;68991;52.122;5.406;2023-05-24T05:10:28;3.67;;;1.40;;
79539;SDS011;68991;52.122;5.406;2023-05-24T05:12:54;4.07;;;1.55;;
79539;SDS011;68991;52.122;5.406;2023-05-24T05:15:21;4.63;;;1.35;;
79539;SDS011;68991;52.122;5.406;2023-05-24T05:17:48;2.20;;;1.05;;
79539;SDS011;68991;52.122;5.406;2023-05-24T05:20:15;2.90;;;1.27;;
79539;SDS011;68991;52.122;5.406;2023-05-24T05:22:45;2.53;;;1.00;;
79539;SDS011;68991;52.122;5.406;2023-05-24T05:27:39;5.07;;;1.15;;
79539;SDS011;68991;52.122;5.406;2023-05-24T05:30:05;2.92;;;1.02;;
79539;SDS011;68991;52.122;5.406;2023-05-24T05:32:33;4.05;;;1.15;;
79539;SDS011;68991;52.122;5.406;2023-05-24T05:35:01;2.42;;;1.10;;
79539;SDS011;68991;52.122;5.406;2023-05-24T05:37:28;2.25;;;1.08;;
79539;SDS011;68991;52.122;5.406;2023-05-24T05:39:55;4.95;;;1.52;;
79539;SDS011;68991;52.122;5.406;2023-05-24T05:42:21;7.38;;;1.20;;
79539;SDS011;68991;52.122;5.406;2023-05-24T05:44:47;3.75;;;1.10;;
79539;SDS011;68991;52.122;5.406;2023-05-24T05:47:14;2.58;;;1.20;;
79539;SDS011;68991;52.122;5.406;2023-05-24T05:49:40;4.65;;;1.23;;
79539;SDS011;68991;52.122;5.406;2023-05-24T05:52:07;4.50;;;1.13;;
79539;SDS011;68991;52.122;5.406;2023-05-24T05:54:33;4.32;;;1.38;;
79539;SDS011;68991;52.122;5.406;2023-05-24T05:57:00;4.30;;;1.40;;
79539;SDS011;68991;52.122;5.406;2023-05-24T05:59:27;5.80;;;1.20;;
79539;SDS011;68991;52.122;5.406;2023-05-24T06:01:53;3.72;;;1.10;;
79539;SDS011;68991;52.122;5.406;2023-05-24T06:04:20;4.35;;;1.00;;
79539;SDS011;68991;52.122;5.406;2023-05-24T06:06:47;4.70;;;1.50;;
79539;SDS011;68991;52.122;5.406;2023-05-24T06:09:15;4.18;;;1.98;;
79539;SDS011;68991;52.122;5.406;2023-05-24T06:11:42;4.43;;;1.20;;
79539;SDS011;68991;52.122;5.406;2023-05-24T06:14:10;6.32;;;1.40;;
79539;SDS011;68991;52.122;5.406;2023-05-24T06:16:38;6.50;;;1.60;;
79539;SDS011;68991;52.122;5.406;2023-05-24T06:19:08;3.40;;;1.23;;
79539;SDS011;68991;52.122;5.406;2023-05-24T06:21:35;4.20;;;1.27;;
79539;SDS011;68991;52.122;5.406;2023-05-24T06:24:02;3.88;;;1.38;;
79539;SDS011;68991;52.122;5.406;2023-05-24T06:26:29;4.18;;;1.75;;
79539;SDS011;68991;52.122;5.406;2023-05-24T06:28:56;3.55;;;1.05;;
79539;SDS011;68991;52.122;5.406;2023-05-24T06:31:22;4.35;;;1.35;;
79539;SDS011;68991;52.122;5.406;2023-05-24T06:33:49;3.33;;;1.17;;
79539;SDS011;68991;52.122;5.406;2023-05-24T06:36:29;5.30;;;1.42;;
79539;SDS011;68991;52.122;5.406;2023-05-24T06:38:59;2.88;;;1.10;;
79539;SDS011;68991;52.122;5.406;2023-05-24T06:41:25;6.30;;;1.48;;
79539;SDS011;68991;52.122;5.406;2023-05-24T06:43:52;3.95;;;1.13;;
79539;SDS011;68991;52.122;5.406;2023-05-24T06:46:18;2.50;;;1.20;;
79539;SDS011;68991;52.122;5.406;2023-05-24T06:48:44;5.68;;;1.33;;
79539;SDS011;68991;52.122;5.406;2023-05-24T06:51:11;3.88;;;1.20;;
79539;SDS011;68991;52.122;5.406;2023-05-24T06:53:37;3.90;;;1.40;;
79539;SDS011;68991;52.122;5.406;2023-05-24T06:56:04;6.00;;;1.70;;
79539;SDS011;68991;52.122;5.406;2023-05-24T06:58:30;4.60;;;1.38;;
79539;SDS011;68991;52.122;5.406;2023-05-24T07:00:57;3.60;;;1.20;;
79539;SDS011;68991;52.122;5.406;2023-05-24T07:03:23;4.03;;;1.35;;
79539;SDS011;68991;52.122;5.406;2023-05-24T07:05:50;5.40;;;1.10;;
79539;SDS011;68991;52.122;5.406;2023-05-24T07:08:16;3.95;;;1.20;;
79539;SDS011;68991;52.122;5.406;2023-05-24T07:10:43;3.80;;;1.30;;
79539;SDS011;68991;52.122;5.406;2023-05-24T07:13:10;4.20;;;1.25;;
79539;SDS011;68991;52.122;5.406;2023-05-24T07:15:40;3.22;;;1.30;;
79539;SDS011;68991;52.122;5.406;2023-05-24T07:18:07;4.38;;;1.63;;
79539;SDS011;68991;52.122;5.406;2023-05-24T07:20:34;4.90;;;1.55;;
79539;SDS011;68991;52.122;5.406;2023-05-24T07:23:00;3.95;;;1.10;;
79539;SDS011;68991;52.122;5.406;2023-05-24T07:25:27;4.50;;;1.35;;
79539;SDS011;68991;52.122;5.406;2023-05-24T07:27:53;3.88;;;1.30;;
79539;SDS011;68991;52.122;5.406;2023-05-24T07:30:20;3.50;;;0.98;;
79539;SDS011;68991;52.122;5.406;2023-05-24T07:32:57;4.60;;;1.60;;
79539;SDS011;68991;52.122;5.406;2023-05-24T07:35:24;3.67;;;1.30;;
79539;SDS011;68991;52.122;5.406;2023-05-24T07:37:51;2.28;;;1.20;;
79539;SDS011;68991;52.122;5.406;2023-05-24T07:40:17;4.30;;;1.50;;
79539;SDS011;68991;52.122;5.406;2023-05-24T07:42:44;5.75;;;1.35;;
79539;SDS011;68991;52.122;5.406;2023-05-24T07:45:12;4.70;;;1.17;;
79539;SDS011;68991;52.122;5.406;2023-05-24T07:47:39;4.20;;;1.23;;
79539;SDS011;68991;52.122;5.406;2023-05-24T07:50:06;4.35;;;1.30;;
79539;SDS011;68991;52.122;5.406;2023-05-24T07:52:32;4.55;;;1.20;;
79539;SDS011;68991;52.122;5.406;2023-05-24T07:54:59;3.05;;;1.05;;
79539;SDS011;68991;52.122;5.406;2023-05-24T07:57:25;4.00;;;1.83;;
79539;SDS011;68991;52.122;5.406;2023-05-24T07:59:52;3.20;;;1.20;;
79539;SDS011;68991;52.122;5.406;2023-05-24T08:02:19;3.13;;;1.55;;
79539;SDS011;68991;52.122;5.406;2023-05-24T08:04:45;3.20;;;1.13;;
79539;SDS011;68991;52.122;5.406;2023-05-24T08:07:12;4.40;;;1.45;;
79539;SDS011;68991;52.122;5.406;2023-05-24T08:09:39;5.15;;;1.45;;
79539;SDS011;68991;52.122;5.406;2023-05-24T08:12:07;4.38;;;1.20;;
79539;SDS011;68991;52.122;5.406;2023-05-24T08:14:33;3.72;;;1.30;;
79539;SDS011;68991;52.122;5.406;2023-05-24T08:17:00;7.80;;;1.25;;
79539;SDS011;68991;52.122;5.406;2023-05-24T08:19:27;3.67;;;1.25;;
79539;SDS011;68991;52.122;5.406;2023-05-24T08:21:54;3.75;;;1.38;;
79539;SDS011;68991;52.122;5.406;2023-05-24T08:24:22;5.93;;;1.85;;
79539;SDS011;68991;52.122;5.406;2023-05-24T08:26:49;3.15;;;1.25;;
79539;SDS011;68991;52.122;5.406;2023-05-24T08:29:16;2.58;;;1.30;;
79539;SDS011;68991;52.122;5.406;2023-05-24T08:31:43;3.15;;;1.17;;
79539;SDS011;68991;52.122;5.406;2023-05-24T08:34:10;4.03;;;1.50;;
79539;SDS011;68991;52.122;5.406;2023-05-24T08:36:39;4.88;;;1.08;;
79539;SDS011;68991;52.122;5.406;2023-05-24T08:39:08;4.00;;;1.50;;
79539;SDS011;68991;52.122;5.406;2023-05-24T08:41:35;5.63;;;1.52;;
79539;SDS011;68991;52.122;5.406;2023-05-24T08:44:04;4.50;;;1.40;;
79539;SDS011;68991;52.122;5.406;2023-05-24T08:46:35;3.88;;;1.40;;
79539;SDS011;68991;52.122;5.406;2023-05-24T08:49:02;5.88;;;1.52;;
79539;SDS011;68991;52.122;5.406;2023-05-24T08:51:30;4.70;;;1.30;;
79539;SDS011;68991;52.122;5.406;2023-05-24T08:54:00;4.00;;;1.35;;
79539;SDS011;68991;52.122;5.406;2023-05-24T08:56:28;3.45;;;1.23;;
79539;SDS011;68991;52.122;5.406;2023-05-24T08:58:55;4.03;;;1.60;;
79539;SDS011;68991;52.122;5.406;2023-05-24T09:01:23;4.97;;;1.40;;
79539;SDS011;68991;52.122;5.406;2023-05-24T09:03:51;2.85;;;1.30;;
79539;SDS011;68991;52.122;5.406;2023-05-24T09:06:19;4.25;;;1.63;;
79539;SDS011;68991;52.122;5.406;2023-05-24T09:08:46;4.60;;;1.48;;
79539;SDS011;68991;52.122;5.406;2023-05-24T09:11:17;3.15;;;1.15;;
79539;SDS011;68991;52.122;5.406;2023-05-24T09:13:44;6.82;;;1.55;;
79539;SDS011;68991;52.122;5.406;2023-05-24T09:16:11;6.43;;;1.50;;
79539;SDS011;68991;52.122;5.406;2023-05-24T09:18:39;3.45;;;1.20;;
79539;SDS011;68991;52.122;5.406;2023-05-24T09:21:09;4.13;;;1.27;;
79539;SDS011;68991;52.122;5.406;2023-05-24T09:23:36;6.78;;;1.75;;
79539;SDS011;68991;52.122;5.406;2023-05-24T09:26:09;3.30;;;1.00;;
79539;SDS011;68991;52.122;5.406;2023-05-24T09:28:36;3.67;;;1.10;;
79539;SDS011;68991;52.122;5.406;2023-05-24T09:31:03;4.07;;;1.25;;
79539;SDS011;68991;52.122;5.406;2023-05-24T09:33:33;4.72;;;1.55;;
79539;SDS011;68991;52.122;5.406;2023-05-24T09:36:01;4.03;;;1.55;;
79539;SDS011;68991;52.122;5.406;2023-05-24T09:38:29;3.35;;;1.30;;
79539;SDS011;68991;52.122;5.406;2023-05-24T09:40:57;5.00;;;1.50;;
79539;SDS011;68991;52.122;5.406;2023-05-24T09:43:28;4.28;;;1.42;;
79539;SDS011;68991;52.122;5.406;2023-05-24T09:45:56;4.55;;;1.40;;
79539;SDS011;68991;52.122;5.406;2023-05-24T09:48:25;5.25;;;1.40;;
79539;SDS011;68991;52.122;5.406;2023-05-24T09:51:07;4.18;;;1.35;;
79539;SDS011;68991;52.122;5.406;2023-05-24T09:53:38;4.38;;;1.60;;
79539;SDS011;68991;52.122;5.406;2023-05-24T09:56:09;4.65;;;1.40;;
79539;SDS011;68991;52.122;5.406;2023-05-24T09:58:36;3.55;;;1.13;;
79539;SDS011;68991;52.122;5.406;2023-05-24T10:01:05;4.05;;;1.40;;
79539;SDS011;68991;52.122;5.406;2023-05-24T10:03:33;5.07;;;1.77;;
79539;SDS011;68991;52.122;5.406;2023-05-24T10:06:00;3.00;;;1.17;;
79539;SDS011;68991;52.122;5.406;2023-05-24T10:08:30;3.17;;;1.10;;
79539;SDS011;68991;52.122;5.406;2023-05-24T10:10:59;4.72;;;1.33;;
79539;SDS011;68991;52.122;5.406;2023-05-24T10:13:27;1.90;;;1.05;;
79539;SDS011;68991;52.122;5.406;2023-05-24T10:15:54;3.85;;;2.08;;
79539;SDS011;68991;52.122;5.406;2023-05-24T10:18:21;2.55;;;1.30;;
79539;SDS011;68991;52.122;5.406;2023-05-24T10:20:47;7.30;;;1.65;;
79539;SDS011;68991;52.122;5.406;2023-05-24T10:23:18;3.00;;;1.52;;
79539;SDS011;68991;52.122;5.406;2023-05-24T10:25:49;3.28;;;1.52;;
79539;SDS011;68991;52.122;5.406;2023-05-24T10:28:21;4.90;;;1.27;;
79539;SDS011;68991;52.122;5.406;2023-05-24T10:33:27;3.67;;;1.33;;
79539;SDS011;68991;52.122;5.406;2023-05-24T10:35:55;4.15;;;1.23;;
79539;SDS011;68991;52.122;5.406;2023-05-24T10:38:22;6.00;;;1.42;;
79539;SDS011;68991;52.122;5.406;2023-05-24T10:40:50;4.45;;;1.25;;
79539;SDS011;68991;52.122;5.406;2023-05-24T10:43:17;5.50;;;1.38;;
79539;SDS011;68991;52.122;5.406;2023-05-24T10:45:47;7.97;;;1.55;;
79539;SDS011;68991;52.122;5.406;2023-05-24T10:50:42;5.70;;;1.52;;
79539;SDS011;68991;52.122;5.406;2023-05-24T10:53:14;3.65;;;1.25;;
79539;SDS011;68991;52.122;5.406;2023-05-24T10:55:53;3.78;;;1.10;;
79539;SDS011;68991;52.122;5.406;2023-05-24T10:58:22;4.47;;;1.55;;
79539;SDS011;68991;52.122;5.406;2023-05-24T11:01:27;4.05;;;1.20;;
79539;SDS011;68991;52.122;5.406;2023-05-24T11:04:17;3.95;;;1.45;;
79539;SDS011;68991;52.122;5.406;2023-05-24T11:06:54;3.58;;;1.52;;
79539;SDS011;68991;52.122;5.406;2023-05-24T11:09:22;3.05;;;1.10;;
79539;SDS011;68991;52.122;5.406;2023-05-24T11:11:52;3.65;;;1.85;;
79539;SDS011;68991;52.122;5.406;2023-05-24T11:14:24;4.95;;;1.33;;
79539;SDS011;68991;52.122;5.406;2023-05-24T11:16:53;3.83;;;1.45;;
79539;SDS011;68991;52.122;5.406;2023-05-24T11:21:49;3.03;;;1.20;;
79539;SDS011;68991;52.122;5.406;2023-05-24T11:24:19;3.85;;;1.60;;
79539;SDS011;68991;52.122;5.406;2023-05-24T11:26:46;6.20;;;1.70;;
79539;SDS011;68991;52.122;5.406;2023-05-24T11:29:13;3.65;;;1.40;;
79539;SDS011;68991;52.122;5.406;2023-05-24T11:31:48;3.40;;;1.40;;
79539;SDS011;68991;52.122;5.406;2023-05-24T11:34:15;3.58;;;1.15;;
79539;SDS011;68991;52.122;5.406;2023-05-24T11:36:42;4.63;;;1.45;;
79539;SDS011;68991;52.122;5.406;2023-05-24T11:39:09;4.57;;;1.48;;
79539;SDS011;68991;52.122;5.406;2023-05-24T11:41:38;4.85;;;1.80;;
79539;SDS011;68991;52.122;5.406;2023-05-24T11:44:06;5.72;;;1.50;;
79539;SDS011;68991;52.122;5.406;2023-05-24T11:46:33;2.78;;;1.27;;
79539;SDS011;68991;52.122;5.406;2023-05-24T11:49:00;4.85;;;1.35;;
79539;SDS011;68991;52.122;5.406;2023-05-24T11:51:31;5.25;;;1.27;;
79539;SDS011;68991;52.122;5.406;2023-05-24T11:53:59;4.20;;;1.27;;
79539;SDS011;68991;52.122;5.406;2023-05-24T11:56:27;4.82;;;1.60;;
79539;SDS011;68991;52.122;5.406;2023-05-24T11:59:02;4.47;;;1.60;;
79539;SDS011;68991;52.122;5.406;2023-05-24T12:01:34;4.53;;;1.70;;
79539;SDS011;68991;52.122;5.406;2023-05-24T12:04:00;4.97;;;1.80;;
79539;SDS011;68991;52.122;5.406;2023-05-24T12:06:34;3.45;;;1.70;;
79539;SDS011;68991;52.122;5.406;2023-05-24T12:09:02;5.45;;;2.08;;
79539;SDS011;68991;52.122;5.406;2023-05-24T12:11:33;4.57;;;2.17;;
79539;SDS011;68991;52.122;5.406;2023-05-24T12:14:04;5.13;;;2.00;;
79539;SDS011;68991;52.122;5.406;2023-05-24T12:16:31;4.72;;;1.90;;
79539;SDS011;68991;52.122;5.406;2023-05-24T12:18:58;5.30;;;1.52;;
79539;SDS011;68991;52.122;5.406;2023-05-24T12:21:34;5.32;;;2.00;;
79539;SDS011;68991;52.122;5.406;2023-05-24T12:24:13;8.95;;;2.30;;
79539;SDS011;68991;52.122;5.406;2023-05-24T12:26:42;5.75;;;1.70;;
79539;SDS011;68991;52.122;5.406;2023-05-24T12:29:10;5.43;;;1.73;;
79539;SDS011;68991;52.122;5.406;2023-05-24T12:31:41;5.70;;;1.90;;
79539;SDS011;68991;52.122;5.406;2023-05-24T12:34:14;4.78;;;1.80;;
79539;SDS011;68991;52.122;5.406;2023-05-24T12:36:42;5.53;;;2.00;;
79539;SDS011;68991;52.122;5.406;2023-05-24T12:39:22;5.20;;;1.80;;
79539;SDS011;68991;52.122;5.406;2023-05-24T12:41:50;5.20;;;1.52;;
79539;SDS011;68991;52.122;5.406;2023-05-24T12:44:24;3.20;;;1.70;;
79539;SDS011;68991;52.122;5.406;2023-05-24T12:46:52;5.60;;;1.65;;
79539;SDS011;68991;52.122;5.406;2023-05-24T12:49:20;6.05;;;1.65;;
79539;SDS011;68991;52.122;5.406;2023-05-24T12:51:48;4.45;;;1.90;;
79539;SDS011;68991;52.122;5.406;2023-05-24T12:54:16;5.28;;;1.60;;
79539;SDS011;68991;52.122;5.406;2023-05-24T12:56:44;4.60;;;1.60;;
79539;SDS011;68991;52.122;5.406;2023-05-24T12:59:11;4.95;;;1.80;;
79539;SDS011;68991;52.122;5.406;2023-05-24T13:01:37;5.70;;;1.83;;
79539;SDS011;68991;52.122;5.406;2023-05-24T13:04:04;5.53;;;2.20;;
79539;SDS011;68991;52.122;5.406;2023-05-24T13:06:31;5.05;;;1.83;;
79539;SDS011;68991;52.122;5.406;2023-05-24T13:08:58;7.18;;;1.80;;
79539;SDS011;68991;52.122;5.406;2023-05-24T13:11:24;7.88;;;1.80;;
79539;SDS011;68991;52.122;5.406;2023-05-24T13:13:52;2.88;;;1.63;;
79539;SDS011;68991;52.122;5.406;2023-05-24T13:16:19;5.35;;;1.77;;
79539;SDS011;68991;52.122;5.406;2023-05-24T13:18:46;5.32;;;1.80;;
79539;SDS011;68991;52.122;5.406;2023-05-24T13:21:13;3.13;;;1.65;;
79539;SDS011;68991;52.122;5.406;2023-05-24T13:23:39;6.20;;;1.70;;
79539;SDS011;68991;52.122;5.406;2023-05-24T13:26:08;6.38;;;1.90;;
79539;SDS011;68991;52.122;5.406;2023-05-24T13:28:34;4.60;;;1.67;;
79539;SDS011;68991;52.122;5.406;2023-05-24T13:31:01;6.75;;;1.75;;
79539;SDS011;68991;52.122;5.406;2023-05-24T13:33:30;5.18;;;2.67;;
79539;SDS011;68991;52.122;5.406;2023-05-24T13:35:59;2.70;;;1.35;;
79539;SDS011;68991;52.122;5.406;2023-05-24T13:38:26;4.32;;;1.63;;
79539;SDS011;68991;52.122;5.406;2023-05-24T13:40:53;3.17;;;1.48;;
79539;SDS011;68991;52.122;5.406;2023-05-24T13:43:20;4.35;;;1.80;;
79539;SDS011;68991;52.122;5.406;2023-05-24T13:45:47;4.63;;;1.83;;
79539;SDS011;68991;52.122;5.406;2023-05-24T13:48:13;3.90;;;1.88;;
79539;SDS011;68991;52.122;5.406;2023-05-24T13:50:40;5.28;;;2.53;;
79539;SDS011;68991;52.122;5.406;2023-05-24T13:53:07;7.82;;;2.72;;
79539;SDS011;68991;52.122;5.406;2023-05-24T13:55:34;5.90;;;2.10;;
79539;SDS011;68991;52.122;5.406;2023-05-24T13:58:03;4.95;;;2.47;;
79539;SDS011;68991;52.122;5.406;2023-05-24T14:00:32;4.78;;;2.22;;
79539;SDS011;68991;52.122;5.406;2023-05-24T14:03:01;6.10;;;2.45;;
79539;SDS011;68991;52.122;5.406;2023-05-24T14:05:28;4.70;;;2.28;;
79539;SDS011;68991;52.122;5.406;2023-05-24T14:07:56;3.70;;;2.67;;
79539;SDS011;68991;52.122;5.406;2023-05-24T14:10:29;3.72;;;2.13;;
79539;SDS011;68991;52.122;5.406;2023-05-24T14:12:55;11.77;;;2.13;;
79539;SDS011;68991;52.122;5.406;2023-05-24T14:15:42;5.53;;;2.28;;
79539;SDS011;68991;52.122;5.406;2023-05-24T14:18:10;5.60;;;2.15;;
79539;SDS011;68991;52.122;5.406;2023-05-24T14:20:36;5.20;;;2.10;;
79539;SDS011;68991;52.122;5.406;2023-05-24T14:23:05;7.88;;;2.20;;
79539;SDS011;68991;52.122;5.406;2023-05-24T14:25:32;7.70;;;2.15;;
79539;SDS011;68991;52.122;5.406;2023-05-24T14:27:59;5.45;;;2.00;;
79539;SDS011;68991;52.122;5.406;2023-05-24T14:30:26;6.10;;;2.22;;
79539;SDS011;68991;52.122;5.406;2023-05-24T14:32:52;4.88;;;2.20;;
79539;SDS011;68991;52.122;5.406;2023-05-24T14:35:19;7.60;;;1.88;;
79539;SDS011;68991;52.122;5.406;2023-05-24T14:37:45;5.60;;;2.35;;
79539;SDS011;68991;52.122;5.406;2023-05-24T14:40:12;5.18;;;2.13;;
79539;SDS011;68991;52.122;5.406;2023-05-24T14:42:40;6.68;;;1.98;;
79539;SDS011;68991;52.122;5.406;2023-05-24T14:45:07;5.28;;;1.80;;
79539;SDS011;68991;52.122;5.406;2023-05-24T14:47:34;4.97;;;1.85;;
79539;SDS011;68991;52.122;5.406;2023-05-24T14:50:01;3.53;;;1.80;;
79539;SDS011;68991;52.122;5.406;2023-05-24T14:52:27;5.18;;;2.08;;
79539;SDS011;68991;52.122;5.406;2023-05-24T14:54:54;7.93;;;2.15;;
79539;SDS011;68991;52.122;5.406;2023-05-24T14:57:20;5.10;;;2.10;;
79539;SDS011;68991;52.122;5.406;2023-05-24T14:59:46;5.30;;;1.88;;
79539;SDS011;68991;52.122;5.406;2023-05-24T15:02:13;4.82;;;1.80;;
79539;SDS011;68991;52.122;5.406;2023-05-24T15:04:39;4.45;;;1.60;;
79539;SDS011;68991;52.122;5.406;2023-05-24T15:07:06;5.72;;;1.70;;
79539;SDS011;68991;52.122;5.406;2023-05-24T15:09:32;5.00;;;1.73;;
79539;SDS011;68991;52.122;5.406;2023-05-24T15:11:59;6.43;;;1.75;;
79539;SDS011;68991;52.122;5.406;2023-05-24T15:14:27;5.63;;;1.98;;
79539;SDS011;68991;52.122;5.406;2023-05-24T15:16:54;5.85;;;1.90;;
79539;SDS011;68991;52.122;5.406;2023-05-24T15:19:20;4.47;;;1.50;;
79539;SDS011;68991;52.122;5.406;2023-05-24T15:21:47;3.38;;;1.42;;